sensor_id;sensor_type;location;lat;lon;timestamp;P1;durP1;ratioP1;P2;durP2;ratioP2
39404;SDS011;25121;51.090;17.038;2023-04-01T00:00:24;11.98;;;7.07;;
39404;SDS011;25121;51.090;17.038;2023-04-01T00:01:45;9.50;;;6.60;;
39404;SDS011;25121;51.090;17.038;2023-04-01T00:03:08;9.43;;;7.22;;
39404;SDS011;25121;51.090;17.038;2023-04-01T00:04:29;10.18;;;7.20;;
39404;SDS011;25121;51.090;17.038;2023-04-01T00:05:51;11.80;;;7.60;;
39404;SDS011;25121;51.090;17.038;2023-04-01T00:07:14;16.27;;;7.85;;
39404;SDS011;25121;51.090;17.038;2023-04-01T00:08:37;11.77;;;8.43;;
39404;SDS011;25121;51.090;17.038;2023-04-01T00:11:23;11.75;;;7.63;;
39404;SDS011;25121;51.090;17.038;2023-04-01T00:12:49;11.23;;;7.65;;
39404;SDS011;25121;51.090;17.038;2023-04-01T00:14:15;9.90;;;7.35;;
39404;SDS011;25121;51.090;17.038;2023-04-01T00:15:47;14.30;;;7.88;;
39404;SDS011;25121;51.090;17.038;2023-04-01T00:17:09;10.48;;;8.00;;
39404;SDS011;25121;51.090;17.038;2023-04-01T00:18:33;9.30;;;6.53;;
39404;SDS011;25121;51.090;17.038;2023-04-01T00:19:56;10.93;;;7.05;;
39404;SDS011;25121;51.090;17.038;2023-04-01T00:21:17;10.02;;;6.85;;
39404;SDS011;25121;51.090;17.038;2023-04-01T00:22:41;9.18;;;6.75;;
39404;SDS011;25121;51.090;17.038;2023-04-01T00:24:02;10.48;;;7.28;;
39404;SDS011;25121;51.090;17.038;2023-04-01T00:25:25;13.07;;;7.68;;
39404;SDS011;25121;51.090;17.038;2023-04-01T00:26:48;10.02;;;7.20;;
39404;SDS011;25121;51.090;17.038;2023-04-01T00:28:12;10.52;;;6.85;;
39404;SDS011;25121;51.090;17.038;2023-04-01T00:29:34;8.50;;;7.40;;
39404;SDS011;25121;51.090;17.038;2023-04-01T00:30:59;11.35;;;7.32;;
39404;SDS011;25121;51.090;17.038;2023-04-01T00:32:25;11.25;;;7.43;;
39404;SDS011;25121;51.090;17.038;2023-04-01T00:33:47;10.73;;;8.00;;
39404;SDS011;25121;51.090;17.038;2023-04-01T00:35:12;9.32;;;7.57;;
39404;SDS011;25121;51.090;17.038;2023-04-01T00:36:33;13.48;;;8.32;;
39404;SDS011;25121;51.090;17.038;2023-04-01T00:37:56;11.70;;;8.07;;
39404;SDS011;25121;51.090;17.038;2023-04-01T00:39:18;9.13;;;7.65;;
39404;SDS011;25121;51.090;17.038;2023-04-01T00:40:42;9.50;;;7.85;;
39404;SDS011;25121;51.090;17.038;2023-04-01T00:42:06;11.55;;;8.45;;
39404;SDS011;25121;51.090;17.038;2023-04-01T00:43:38;10.32;;;7.85;;
39404;SDS011;25121;51.090;17.038;2023-04-01T00:46:51;11.32;;;8.40;;
39404;SDS011;25121;51.090;17.038;2023-04-01T00:48:17;12.30;;;8.63;;
39404;SDS011;25121;51.090;17.038;2023-04-01T00:49:43;12.98;;;8.43;;
39404;SDS011;25121;51.090;17.038;2023-04-01T00:51:18;13.80;;;9.07;;
39404;SDS011;25121;51.090;17.038;2023-04-01T00:52:44;10.05;;;8.02;;
39404;SDS011;25121;51.090;17.038;2023-04-01T00:54:06;10.55;;;8.43;;
39404;SDS011;25121;51.090;17.038;2023-04-01T00:55:32;13.45;;;9.40;;
39404;SDS011;25121;51.090;17.038;2023-04-01T00:56:57;12.73;;;8.40;;
39404;SDS011;25121;51.090;17.038;2023-04-01T00:58:24;11.75;;;8.48;;
39404;SDS011;25121;51.090;17.038;2023-04-01T00:59:54;13.82;;;8.93;;
39404;SDS011;25121;51.090;17.038;2023-04-01T01:01:18;12.65;;;9.13;;
39404;SDS011;25121;51.090;17.038;2023-04-01T01:02:44;10.27;;;8.77;;
39404;SDS011;25121;51.090;17.038;2023-04-01T01:05:50;12.18;;;9.13;;
39404;SDS011;25121;51.090;17.038;2023-04-01T01:07:25;13.68;;;10.02;;
39404;SDS011;25121;51.090;17.038;2023-04-01T01:09:17;15.17;;;9.80;;
39404;SDS011;25121;51.090;17.038;2023-04-01T01:10:48;12.05;;;9.43;;
39404;SDS011;25121;51.090;17.038;2023-04-01T01:12:11;12.30;;;9.68;;
39404;SDS011;25121;51.090;17.038;2023-04-01T01:13:36;11.30;;;9.52;;
39404;SDS011;25121;51.090;17.038;2023-04-01T01:15:11;11.65;;;8.95;;
39404;SDS011;25121;51.090;17.038;2023-04-01T01:16:43;14.45;;;10.77;;
39404;SDS011;25121;51.090;17.038;2023-04-01T01:18:09;13.00;;;10.07;;
39404;SDS011;25121;51.090;17.038;2023-04-01T01:25:16;12.38;;;8.93;;
39404;SDS011;25121;51.090;17.038;2023-04-01T01:26:52;13.98;;;10.60;;
39404;SDS011;25121;51.090;17.038;2023-04-01T01:28:23;13.82;;;9.15;;
39404;SDS011;25121;51.090;17.038;2023-04-01T01:30:14;16.13;;;8.75;;
39404;SDS011;25121;51.090;17.038;2023-04-01T01:31:49;12.13;;;9.45;;
39404;SDS011;25121;51.090;17.038;2023-04-01T01:33:34;16.73;;;9.20;;
39404;SDS011;25121;51.090;17.038;2023-04-01T01:35:12;12.60;;;9.40;;
39404;SDS011;25121;51.090;17.038;2023-04-01T01:36:42;14.38;;;9.05;;
39404;SDS011;25121;51.090;17.038;2023-04-01T01:38:07;11.43;;;9.52;;
39404;SDS011;25121;51.090;17.038;2023-04-01T01:39:31;12.02;;;9.07;;
39404;SDS011;25121;51.090;17.038;2023-04-01T01:40:57;15.65;;;9.30;;
39404;SDS011;25121;51.090;17.038;2023-04-01T01:42:23;12.50;;;8.60;;
39404;SDS011;25121;51.090;17.038;2023-04-01T01:43:47;12.48;;;9.13;;
39404;SDS011;25121;51.090;17.038;2023-04-01T01:45:14;13.20;;;8.45;;
39404;SDS011;25121;51.090;17.038;2023-04-01T01:46:39;13.82;;;8.20;;
39404;SDS011;25121;51.090;17.038;2023-04-01T01:48:04;11.68;;;8.68;;
39404;SDS011;25121;51.090;17.038;2023-04-01T01:49:28;10.25;;;9.07;;
39404;SDS011;25121;51.090;17.038;2023-04-01T01:50:55;12.52;;;8.30;;
39404;SDS011;25121;51.090;17.038;2023-04-01T01:52:17;12.57;;;8.40;;
39404;SDS011;25121;51.090;17.038;2023-04-01T01:53:39;11.93;;;8.75;;
39404;SDS011;25121;51.090;17.038;2023-04-01T01:55:02;12.43;;;8.98;;
39404;SDS011;25121;51.090;17.038;2023-04-01T01:56:37;15.65;;;8.23;;
39404;SDS011;25121;51.090;17.038;2023-04-01T01:58:02;11.73;;;8.38;;
39404;SDS011;25121;51.090;17.038;2023-04-01T01:59:31;13.85;;;8.32;;
39404;SDS011;25121;51.090;17.038;2023-04-01T02:00:57;13.35;;;8.35;;
39404;SDS011;25121;51.090;17.038;2023-04-01T02:02:21;11.80;;;8.25;;
39404;SDS011;25121;51.090;17.038;2023-04-01T02:03:47;9.65;;;8.20;;
39404;SDS011;25121;51.090;17.038;2023-04-01T02:05:14;11.60;;;8.05;;
39404;SDS011;25121;51.090;17.038;2023-04-01T02:06:42;12.77;;;8.23;;
39404;SDS011;25121;51.090;17.038;2023-04-01T02:09:35;11.00;;;8.10;;
39404;SDS011;25121;51.090;17.038;2023-04-01T02:10:59;9.50;;;8.48;;
39404;SDS011;25121;51.090;17.038;2023-04-01T02:12:27;10.93;;;8.73;;
39404;SDS011;25121;51.090;17.038;2023-04-01T02:13:52;10.90;;;8.23;;
39404;SDS011;25121;51.090;17.038;2023-04-01T02:15:17;13.48;;;7.57;;
39404;SDS011;25121;51.090;17.038;2023-04-01T02:16:44;9.98;;;7.15;;
39404;SDS011;25121;51.090;17.038;2023-04-01T02:18:11;12.60;;;9.07;;
39404;SDS011;25121;51.090;17.038;2023-04-01T02:19:36;8.98;;;7.15;;
39404;SDS011;25121;51.090;17.038;2023-04-01T02:21:01;8.88;;;7.97;;
39404;SDS011;25121;51.090;17.038;2023-04-01T02:22:28;10.02;;;7.35;;
39404;SDS011;25121;51.090;17.038;2023-04-01T02:23:52;10.65;;;6.95;;
39404;SDS011;25121;51.090;17.038;2023-04-01T02:25:17;9.05;;;6.80;;
39404;SDS011;25121;51.090;17.038;2023-04-01T02:26:41;9.15;;;6.78;;
39404;SDS011;25121;51.090;17.038;2023-04-01T02:28:05;9.90;;;6.97;;
39404;SDS011;25121;51.090;17.038;2023-04-01T02:29:28;9.23;;;6.50;;
39404;SDS011;25121;51.090;17.038;2023-04-01T02:30:51;9.35;;;6.85;;
39404;SDS011;25121;51.090;17.038;2023-04-01T02:32:13;13.15;;;7.05;;
39404;SDS011;25121;51.090;17.038;2023-04-01T02:33:38;10.77;;;6.80;;
39404;SDS011;25121;51.090;17.038;2023-04-01T02:35:02;9.32;;;6.78;;
39404;SDS011;25121;51.090;17.038;2023-04-01T02:36:26;11.00;;;6.18;;
39404;SDS011;25121;51.090;17.038;2023-04-01T02:37:50;9.20;;;6.22;;
39404;SDS011;25121;51.090;17.038;2023-04-01T02:39:14;9.57;;;5.78;;
39404;SDS011;25121;51.090;17.038;2023-04-01T02:40:46;8.05;;;6.22;;
39404;SDS011;25121;51.090;17.038;2023-04-01T02:42:09;8.50;;;5.90;;
39404;SDS011;25121;51.090;17.038;2023-04-01T02:43:31;10.13;;;5.85;;
39404;SDS011;25121;51.090;17.038;2023-04-01T02:44:54;7.50;;;5.40;;
39404;SDS011;25121;51.090;17.038;2023-04-01T02:46:16;8.98;;;5.78;;
39404;SDS011;25121;51.090;17.038;2023-04-01T02:47:38;8.82;;;5.43;;
39404;SDS011;25121;51.090;17.038;2023-04-01T02:49:00;7.88;;;5.35;;
39404;SDS011;25121;51.090;17.038;2023-04-01T02:50:22;8.15;;;5.30;;
39404;SDS011;25121;51.090;17.038;2023-04-01T02:51:45;8.05;;;5.10;;
39404;SDS011;25121;51.090;17.038;2023-04-01T02:53:09;9.23;;;5.60;;
39404;SDS011;25121;51.090;17.038;2023-04-01T02:54:30;7.18;;;5.72;;
39404;SDS011;25121;51.090;17.038;2023-04-01T02:55:52;7.40;;;4.85;;
39404;SDS011;25121;51.090;17.038;2023-04-01T02:57:14;7.53;;;5.18;;
39404;SDS011;25121;51.090;17.038;2023-04-01T02:58:38;7.50;;;5.50;;
39404;SDS011;25121;51.090;17.038;2023-04-01T03:00:00;8.02;;;5.35;;
39404;SDS011;25121;51.090;17.038;2023-04-01T03:01:22;8.45;;;5.28;;
39404;SDS011;25121;51.090;17.038;2023-04-01T03:02:43;9.30;;;5.38;;
39404;SDS011;25121;51.090;17.038;2023-04-01T03:04:06;8.63;;;5.15;;
39404;SDS011;25121;51.090;17.038;2023-04-01T03:05:28;6.32;;;4.85;;
39404;SDS011;25121;51.090;17.038;2023-04-01T03:06:49;6.93;;;4.97;;
39404;SDS011;25121;51.090;17.038;2023-04-01T03:08:13;8.57;;;5.63;;
39404;SDS011;25121;51.090;17.038;2023-04-01T03:09:35;7.40;;;4.68;;
39404;SDS011;25121;51.090;17.038;2023-04-01T03:10:57;10.70;;;4.88;;
39404;SDS011;25121;51.090;17.038;2023-04-01T03:12:19;7.22;;;4.75;;
39404;SDS011;25121;51.090;17.038;2023-04-01T03:13:43;5.80;;;4.90;;
39404;SDS011;25121;51.090;17.038;2023-04-01T03:15:05;5.00;;;4.30;;
39404;SDS011;25121;51.090;17.038;2023-04-01T03:16:31;6.03;;;4.82;;
39404;SDS011;25121;51.090;17.038;2023-04-01T03:17:54;8.20;;;5.13;;
39404;SDS011;25121;51.090;17.038;2023-04-01T03:19:15;4.60;;;4.10;;
39404;SDS011;25121;51.090;17.038;2023-04-01T03:20:38;6.65;;;4.80;;
39404;SDS011;25121;51.090;17.038;2023-04-01T03:21:59;8.25;;;5.00;;
39404;SDS011;25121;51.090;17.038;2023-04-01T03:23:23;5.55;;;4.40;;
39404;SDS011;25121;51.090;17.038;2023-04-01T03:24:45;4.97;;;4.40;;
39404;SDS011;25121;51.090;17.038;2023-04-01T03:26:08;5.90;;;4.75;;
39404;SDS011;25121;51.090;17.038;2023-04-01T03:27:30;7.40;;;4.38;;
39404;SDS011;25121;51.090;17.038;2023-04-01T03:28:52;6.75;;;4.97;;
39404;SDS011;25121;51.090;17.038;2023-04-01T03:30:15;7.50;;;5.10;;
39404;SDS011;25121;51.090;17.038;2023-04-01T03:31:42;6.50;;;4.60;;
39404;SDS011;25121;51.090;17.038;2023-04-01T03:33:05;6.97;;;4.35;;
39404;SDS011;25121;51.090;17.038;2023-04-01T03:34:28;5.63;;;4.43;;
39404;SDS011;25121;51.090;17.038;2023-04-01T03:35:48;6.43;;;5.40;;
39404;SDS011;25121;51.090;17.038;2023-04-01T03:37:12;8.73;;;5.93;;
39404;SDS011;25121;51.090;17.038;2023-04-01T03:38:36;8.82;;;4.93;;
39404;SDS011;25121;51.090;17.038;2023-04-01T03:39:58;6.85;;;5.28;;
39404;SDS011;25121;51.090;17.038;2023-04-01T03:41:21;7.28;;;5.50;;
39404;SDS011;25121;51.090;17.038;2023-04-01T03:42:42;8.40;;;5.38;;
39404;SDS011;25121;51.090;17.038;2023-04-01T03:44:04;8.25;;;5.22;;
39404;SDS011;25121;51.090;17.038;2023-04-01T03:45:26;6.53;;;5.38;;
39404;SDS011;25121;51.090;17.038;2023-04-01T03:46:48;8.75;;;6.15;;
39404;SDS011;25121;51.090;17.038;2023-04-01T03:48:10;7.13;;;5.80;;
39404;SDS011;25121;51.090;17.038;2023-04-01T03:49:32;11.55;;;7.40;;
39404;SDS011;25121;51.090;17.038;2023-04-01T03:50:53;10.43;;;7.25;;
39404;SDS011;25121;51.090;17.038;2023-04-01T03:52:16;12.07;;;9.88;;
39404;SDS011;25121;51.090;17.038;2023-04-01T03:53:39;13.57;;;11.00;;
39404;SDS011;25121;51.090;17.038;2023-04-01T03:55:01;14.82;;;11.27;;
39404;SDS011;25121;51.090;17.038;2023-04-01T03:56:27;14.82;;;12.38;;
39404;SDS011;25121;51.090;17.038;2023-04-01T03:57:49;16.38;;;13.38;;
39404;SDS011;25121;51.090;17.038;2023-04-01T03:59:14;19.15;;;13.23;;
39404;SDS011;25121;51.090;17.038;2023-04-01T04:00:35;19.80;;;14.13;;
39404;SDS011;25121;51.090;17.038;2023-04-01T04:01:58;18.73;;;14.80;;
39404;SDS011;25121;51.090;17.038;2023-04-01T04:03:22;18.58;;;13.80;;
39404;SDS011;25121;51.090;17.038;2023-04-01T04:04:43;15.70;;;12.60;;
39404;SDS011;25121;51.090;17.038;2023-04-01T04:06:07;16.73;;;13.82;;
39404;SDS011;25121;51.090;17.038;2023-04-01T04:07:33;18.65;;;13.75;;
39404;SDS011;25121;51.090;17.038;2023-04-01T04:09:00;16.83;;;13.02;;
39404;SDS011;25121;51.090;17.038;2023-04-01T04:10:23;19.02;;;12.32;;
39404;SDS011;25121;51.090;17.038;2023-04-01T04:11:47;16.25;;;11.82;;
39404;SDS011;25121;51.090;17.038;2023-04-01T04:13:08;18.30;;;12.75;;
39404;SDS011;25121;51.090;17.038;2023-04-01T04:14:37;14.68;;;11.65;;
39404;SDS011;25121;51.090;17.038;2023-04-01T04:16:00;16.42;;;12.60;;
39404;SDS011;25121;51.090;17.038;2023-04-01T04:17:21;15.60;;;11.20;;
39404;SDS011;25121;51.090;17.038;2023-04-01T04:18:44;13.85;;;11.85;;
39404;SDS011;25121;51.090;17.038;2023-04-01T04:20:07;13.73;;;11.15;;
39404;SDS011;25121;51.090;17.038;2023-04-01T04:21:29;17.63;;;12.40;;
39404;SDS011;25121;51.090;17.038;2023-04-01T04:22:52;26.80;;;13.35;;
39404;SDS011;25121;51.090;17.038;2023-04-01T04:24:15;19.50;;;13.88;;
39404;SDS011;25121;51.090;17.038;2023-04-01T04:25:55;20.35;;;14.18;;
39404;SDS011;25121;51.090;17.038;2023-04-01T04:27:21;27.00;;;16.38;;
39404;SDS011;25121;51.090;17.038;2023-04-01T04:28:55;25.55;;;16.80;;
39404;SDS011;25121;51.090;17.038;2023-04-01T04:30:18;31.05;;;19.02;;
39404;SDS011;25121;51.090;17.038;2023-04-01T04:31:40;28.38;;;17.20;;
39404;SDS011;25121;51.090;17.038;2023-04-01T04:33:03;20.05;;;13.45;;
39404;SDS011;25121;51.090;17.038;2023-04-01T04:34:26;21.63;;;15.70;;
39404;SDS011;25121;51.090;17.038;2023-04-01T04:35:48;25.67;;;17.50;;
39404;SDS011;25121;51.090;17.038;2023-04-01T04:37:10;21.63;;;13.93;;
39404;SDS011;25121;51.090;17.038;2023-04-01T04:38:32;23.85;;;15.30;;
39404;SDS011;25121;51.090;17.038;2023-04-01T04:39:56;19.30;;;12.77;;
39404;SDS011;25121;51.090;17.038;2023-04-01T04:41:22;15.00;;;11.38;;
39404;SDS011;25121;51.090;17.038;2023-04-01T04:42:44;14.40;;;8.82;;
39404;SDS011;25121;51.090;17.038;2023-04-01T04:44:08;13.68;;;9.10;;
39404;SDS011;25121;51.090;17.038;2023-04-01T04:45:31;10.68;;;8.23;;
39404;SDS011;25121;51.090;17.038;2023-04-01T04:46:53;14.70;;;9.90;;
39404;SDS011;25121;51.090;17.038;2023-04-01T04:48:18;14.35;;;7.85;;
39404;SDS011;25121;51.090;17.038;2023-04-01T04:49:41;11.88;;;8.02;;
39404;SDS011;25121;51.090;17.038;2023-04-01T04:51:04;17.38;;;8.25;;
39404;SDS011;25121;51.090;17.038;2023-04-01T04:52:25;12.50;;;9.13;;
39404;SDS011;25121;51.090;17.038;2023-04-01T04:53:49;10.82;;;7.38;;
39404;SDS011;25121;51.090;17.038;2023-04-01T04:55:20;10.23;;;7.50;;
39404;SDS011;25121;51.090;17.038;2023-04-01T04:56:58;12.75;;;7.75;;
39404;SDS011;25121;51.090;17.038;2023-04-01T04:58:25;10.30;;;6.57;;
39404;SDS011;25121;51.090;17.038;2023-04-01T04:59:47;11.38;;;6.85;;
39404;SDS011;25121;51.090;17.038;2023-04-01T05:01:18;9.18;;;6.20;;
39404;SDS011;25121;51.090;17.038;2023-04-01T05:02:40;9.95;;;6.55;;
39404;SDS011;25121;51.090;17.038;2023-04-01T05:04:01;6.80;;;5.95;;
39404;SDS011;25121;51.090;17.038;2023-04-01T05:05:24;9.02;;;6.13;;
39404;SDS011;25121;51.090;17.038;2023-04-01T05:06:45;9.80;;;6.45;;
39404;SDS011;25121;51.090;17.038;2023-04-01T05:08:09;6.97;;;5.43;;
39404;SDS011;25121;51.090;17.038;2023-04-01T05:09:37;5.82;;;5.13;;
39404;SDS011;25121;51.090;17.038;2023-04-01T05:11:01;7.32;;;5.93;;
39404;SDS011;25121;51.090;17.038;2023-04-01T05:12:26;10.30;;;6.82;;
39404;SDS011;25121;51.090;17.038;2023-04-01T05:13:51;10.23;;;6.85;;
39404;SDS011;25121;51.090;17.038;2023-04-01T05:15:13;9.77;;;6.47;;
39404;SDS011;25121;51.090;17.038;2023-04-01T05:16:35;12.65;;;7.63;;
39404;SDS011;25121;51.090;17.038;2023-04-01T05:17:57;7.43;;;5.38;;
39404;SDS011;25121;51.090;17.038;2023-04-01T05:19:20;9.10;;;6.07;;
39404;SDS011;25121;51.090;17.038;2023-04-01T05:22:07;10.85;;;5.88;;
39404;SDS011;25121;51.090;17.038;2023-04-01T05:23:30;7.10;;;6.38;;
39404;SDS011;25121;51.090;17.038;2023-04-01T05:24:52;13.23;;;7.20;;
39404;SDS011;25121;51.090;17.038;2023-04-01T05:26:17;11.75;;;7.75;;
39404;SDS011;25121;51.090;17.038;2023-04-01T05:27:39;11.43;;;9.05;;
39404;SDS011;25121;51.090;17.038;2023-04-01T05:29:01;10.70;;;7.97;;
39404;SDS011;25121;51.090;17.038;2023-04-01T05:30:25;13.40;;;7.88;;
39404;SDS011;25121;51.090;17.038;2023-04-01T05:31:56;8.82;;;7.18;;
39404;SDS011;25121;51.090;17.038;2023-04-01T05:34:40;7.97;;;6.57;;
39404;SDS011;25121;51.090;17.038;2023-04-01T05:36:08;10.88;;;7.57;;
39404;SDS011;25121;51.090;17.038;2023-04-01T05:37:33;10.52;;;6.65;;
39404;SDS011;25121;51.090;17.038;2023-04-01T05:38:56;16.60;;;9.07;;
39404;SDS011;25121;51.090;17.038;2023-04-01T05:40:20;13.40;;;8.68;;
39404;SDS011;25121;51.090;17.038;2023-04-01T05:41:43;10.95;;;7.25;;
39404;SDS011;25121;51.090;17.038;2023-04-01T05:43:06;10.45;;;7.57;;
39404;SDS011;25121;51.090;17.038;2023-04-01T05:44:29;8.40;;;5.57;;
39404;SDS011;25121;51.090;17.038;2023-04-01T05:45:56;11.93;;;7.65;;
39404;SDS011;25121;51.090;17.038;2023-04-01T05:47:38;8.85;;;6.57;;
39404;SDS011;25121;51.090;17.038;2023-04-01T05:49:01;11.98;;;8.05;;
39404;SDS011;25121;51.090;17.038;2023-04-01T05:50:23;10.70;;;8.52;;
39404;SDS011;25121;51.090;17.038;2023-04-01T05:51:48;12.05;;;7.03;;
39404;SDS011;25121;51.090;17.038;2023-04-01T05:53:11;10.77;;;8.02;;
39404;SDS011;25121;51.090;17.038;2023-04-01T05:54:35;13.82;;;8.82;;
39404;SDS011;25121;51.090;17.038;2023-04-01T05:56:01;13.25;;;9.65;;
39404;SDS011;25121;51.090;17.038;2023-04-01T05:57:31;16.40;;;9.10;;
39404;SDS011;25121;51.090;17.038;2023-04-01T05:58:54;12.07;;;9.40;;
39404;SDS011;25121;51.090;17.038;2023-04-01T06:00:17;15.73;;;9.95;;
39404;SDS011;25121;51.090;17.038;2023-04-01T06:01:40;15.85;;;10.25;;
39404;SDS011;25121;51.090;17.038;2023-04-01T06:03:03;13.40;;;10.40;;
39404;SDS011;25121;51.090;17.038;2023-04-01T06:04:24;14.55;;;8.82;;
39404;SDS011;25121;51.090;17.038;2023-04-01T06:05:51;13.30;;;9.23;;
39404;SDS011;25121;51.090;17.038;2023-04-01T06:07:14;13.73;;;9.50;;
39404;SDS011;25121;51.090;17.038;2023-04-01T06:08:38;15.88;;;10.32;;
39404;SDS011;25121;51.090;17.038;2023-04-01T06:09:59;14.10;;;10.93;;
39404;SDS011;25121;51.090;17.038;2023-04-01T06:11:24;15.95;;;9.88;;
39404;SDS011;25121;51.090;17.038;2023-04-01T06:12:59;11.68;;;9.40;;
39404;SDS011;25121;51.090;17.038;2023-04-01T06:14:28;15.45;;;9.30;;
39404;SDS011;25121;51.090;17.038;2023-04-01T06:15:59;12.00;;;8.73;;
39404;SDS011;25121;51.090;17.038;2023-04-01T06:17:31;10.00;;;8.07;;
39404;SDS011;25121;51.090;17.038;2023-04-01T06:19:09;10.98;;;8.40;;
39404;SDS011;25121;51.090;17.038;2023-04-01T06:20:43;14.75;;;8.10;;
39404;SDS011;25121;51.090;17.038;2023-04-01T06:24:16;12.40;;;7.50;;
39404;SDS011;25121;51.090;17.038;2023-04-01T06:25:57;11.48;;;7.03;;
39404;SDS011;25121;51.090;17.038;2023-04-01T06:27:34;13.73;;;8.15;;
39404;SDS011;25121;51.090;17.038;2023-04-01T06:29:14;10.30;;;7.43;;
39404;SDS011;25121;51.090;17.038;2023-04-01T06:30:49;10.57;;;6.32;;
39404;SDS011;25121;51.090;17.038;2023-04-01T06:32:47;11.65;;;7.47;;
39404;SDS011;25121;51.090;17.038;2023-04-01T06:36:25;11.70;;;7.85;;
39404;SDS011;25121;51.090;17.038;2023-04-01T06:38:30;9.93;;;6.60;;
39404;SDS011;25121;51.090;17.038;2023-04-01T06:42:14;11.57;;;7.13;;
39404;SDS011;25121;51.090;17.038;2023-04-01T06:44:04;7.88;;;5.70;;
39404;SDS011;25121;51.090;17.038;2023-04-01T06:45:57;14.18;;;7.25;;
39404;SDS011;25121;51.090;17.038;2023-04-01T06:47:51;9.25;;;6.50;;
39404;SDS011;25121;51.090;17.038;2023-04-01T06:49:44;10.00;;;6.72;;
39404;SDS011;25121;51.090;17.038;2023-04-01T06:51:22;10.27;;;6.80;;
39404;SDS011;25121;51.090;17.038;2023-04-01T06:53:17;7.55;;;5.57;;
39404;SDS011;25121;51.090;17.038;2023-04-01T06:55:06;14.85;;;7.53;;
39404;SDS011;25121;51.090;17.038;2023-04-01T06:57:19;6.25;;;5.63;;
39404;SDS011;25121;51.090;17.038;2023-04-01T07:00:38;10.98;;;6.45;;
39404;SDS011;25121;51.090;17.038;2023-04-01T07:02:15;7.30;;;5.68;;
39404;SDS011;25121;51.090;17.038;2023-04-01T07:03:47;10.95;;;6.22;;
39404;SDS011;25121;51.090;17.038;2023-04-01T07:05:15;10.73;;;6.25;;
39404;SDS011;25121;51.090;17.038;2023-04-01T07:06:39;10.13;;;6.18;;
39404;SDS011;25121;51.090;17.038;2023-04-01T07:08:17;13.90;;;7.70;;
39404;SDS011;25121;51.090;17.038;2023-04-01T07:09:48;8.68;;;7.03;;
39404;SDS011;25121;51.090;17.038;2023-04-01T07:11:23;8.90;;;5.18;;
39404;SDS011;25121;51.090;17.038;2023-04-01T07:13:13;14.20;;;7.93;;
39404;SDS011;25121;51.090;17.038;2023-04-01T07:14:52;13.43;;;6.75;;
39404;SDS011;25121;51.090;17.038;2023-04-01T07:16:31;8.15;;;6.15;;
39404;SDS011;25121;51.090;17.038;2023-04-01T07:18:00;8.35;;;6.60;;
39404;SDS011;25121;51.090;17.038;2023-04-01T07:23:06;7.55;;;5.85;;
39404;SDS011;25121;51.090;17.038;2023-04-01T07:25:08;11.75;;;6.22;;
39404;SDS011;25121;51.090;17.038;2023-04-01T07:26:38;10.77;;;6.43;;
39404;SDS011;25121;51.090;17.038;2023-04-01T07:28:04;9.35;;;5.38;;
39404;SDS011;25121;51.090;17.038;2023-04-01T07:29:31;6.03;;;4.90;;
39404;SDS011;25121;51.090;17.038;2023-04-01T07:31:00;9.20;;;5.35;;
39404;SDS011;25121;51.090;17.038;2023-04-01T07:32:42;9.93;;;6.28;;
39404;SDS011;25121;51.090;17.038;2023-04-01T07:34:34;6.03;;;4.97;;
39404;SDS011;25121;51.090;17.038;2023-04-01T07:36:11;8.25;;;5.30;;
39404;SDS011;25121;51.090;17.038;2023-04-01T07:37:55;8.85;;;5.35;;
39404;SDS011;25121;51.090;17.038;2023-04-01T07:39:36;7.93;;;5.03;;
39404;SDS011;25121;51.090;17.038;2023-04-01T07:41:16;7.28;;;5.28;;
39404;SDS011;25121;51.090;17.038;2023-04-01T07:42:53;11.32;;;6.50;;
39404;SDS011;25121;51.090;17.038;2023-04-01T07:44:50;14.18;;;5.05;;
39404;SDS011;25121;51.090;17.038;2023-04-01T07:47:11;10.27;;;5.38;;
39404;SDS011;25121;51.090;17.038;2023-04-01T07:48:54;11.77;;;4.95;;
39404;SDS011;25121;51.090;17.038;2023-04-01T07:50:22;11.77;;;5.75;;
39404;SDS011;25121;51.090;17.038;2023-04-01T07:52:29;6.38;;;5.03;;
39404;SDS011;25121;51.090;17.038;2023-04-01T07:54:24;10.55;;;5.18;;
39404;SDS011;25121;51.090;17.038;2023-04-01T07:56:01;8.05;;;5.03;;
39404;SDS011;25121;51.090;17.038;2023-04-01T07:57:47;6.47;;;4.85;;
39404;SDS011;25121;51.090;17.038;2023-04-01T07:59:17;8.75;;;4.72;;
39404;SDS011;25121;51.090;17.038;2023-04-01T08:00:53;11.02;;;5.18;;
39404;SDS011;25121;51.090;17.038;2023-04-01T08:02:40;11.35;;;5.35;;
39404;SDS011;25121;51.090;17.038;2023-04-01T08:04:28;8.85;;;4.55;;
39404;SDS011;25121;51.090;17.038;2023-04-01T08:06:06;11.50;;;6.28;;
39404;SDS011;25121;51.090;17.038;2023-04-01T08:07:43;9.55;;;5.85;;
39404;SDS011;25121;51.090;17.038;2023-04-01T08:09:53;8.85;;;6.47;;
39404;SDS011;25121;51.090;17.038;2023-04-01T08:11:48;8.05;;;4.22;;
39404;SDS011;25121;51.090;17.038;2023-04-01T08:13:43;8.60;;;4.70;;
39404;SDS011;25121;51.090;17.038;2023-04-01T08:15:34;10.25;;;5.13;;
39404;SDS011;25121;51.090;17.038;2023-04-01T08:17:43;8.82;;;5.30;;
39404;SDS011;25121;51.090;17.038;2023-04-01T08:19:16;14.93;;;6.72;;
39404;SDS011;25121;51.090;17.038;2023-04-01T08:21:01;10.20;;;5.72;;
39404;SDS011;25121;51.090;17.038;2023-04-01T08:22:36;12.02;;;6.47;;
39404;SDS011;25121;51.090;17.038;2023-04-01T08:24:22;10.73;;;6.35;;
39404;SDS011;25121;51.090;17.038;2023-04-01T08:26:09;6.90;;;4.90;;
39404;SDS011;25121;51.090;17.038;2023-04-01T08:27:37;8.48;;;5.55;;
39404;SDS011;25121;51.090;17.038;2023-04-01T08:29:04;10.13;;;7.50;;
39404;SDS011;25121;51.090;17.038;2023-04-01T08:30:36;10.43;;;6.70;;
39404;SDS011;25121;51.090;17.038;2023-04-01T08:32:08;12.18;;;6.38;;
39404;SDS011;25121;51.090;17.038;2023-04-01T08:33:34;13.52;;;6.63;;
39404;SDS011;25121;51.090;17.038;2023-04-01T08:35:07;10.25;;;5.95;;
39404;SDS011;25121;51.090;17.038;2023-04-01T08:36:48;11.63;;;5.47;;
39404;SDS011;25121;51.090;17.038;2023-04-01T08:38:21;8.10;;;4.60;;
39404;SDS011;25121;51.090;17.038;2023-04-01T08:39:51;7.20;;;5.57;;
39404;SDS011;25121;51.090;17.038;2023-04-01T08:43:41;7.72;;;4.50;;
39404;SDS011;25121;51.090;17.038;2023-04-01T08:45:33;10.57;;;5.80;;
39404;SDS011;25121;51.090;17.038;2023-04-01T08:47:24;8.07;;;4.85;;
39404;SDS011;25121;51.090;17.038;2023-04-01T08:49:02;9.63;;;5.65;;
39404;SDS011;25121;51.090;17.038;2023-04-01T08:50:40;8.40;;;6.18;;
39404;SDS011;25121;51.090;17.038;2023-04-01T08:52:33;10.50;;;6.35;;
39404;SDS011;25121;51.090;17.038;2023-04-01T08:54:03;11.85;;;5.60;;
39404;SDS011;25121;51.090;17.038;2023-04-01T08:55:54;7.97;;;5.15;;
39404;SDS011;25121;51.090;17.038;2023-04-01T08:57:31;9.38;;;6.40;;
39404;SDS011;25121;51.090;17.038;2023-04-01T08:59:50;12.93;;;7.68;;
39404;SDS011;25121;51.090;17.038;2023-04-01T09:01:58;12.63;;;6.28;;
39404;SDS011;25121;51.090;17.038;2023-04-01T09:04:05;9.23;;;5.72;;
39404;SDS011;25121;51.090;17.038;2023-04-01T09:05:56;8.05;;;4.95;;
39404;SDS011;25121;51.090;17.038;2023-04-01T09:07:39;8.73;;;5.15;;
39404;SDS011;25121;51.090;17.038;2023-04-01T09:09:14;10.73;;;5.25;;
39404;SDS011;25121;51.090;17.038;2023-04-01T09:11:04;9.23;;;6.57;;
39404;SDS011;25121;51.090;17.038;2023-04-01T09:12:52;8.85;;;5.38;;
39404;SDS011;25121;51.090;17.038;2023-04-01T09:17:46;7.15;;;4.40;;
39404;SDS011;25121;51.090;17.038;2023-04-01T09:19:33;6.97;;;5.03;;